createdAt,value
2023-01-19T00:00:28.450Z,77.31
2023-01-19T00:01:30.271Z,76.88
2023-01-19T00:02:32.344Z,76.95
2023-01-19T00:03:35.213Z,76.86
2023-01-19T00:04:37.111Z,76.66
2023-01-19T00:05:38.853Z,76.14
2023-01-19T00:06:40.706Z,76.07
2023-01-19T00:07:42.447Z,75.90
2023-01-19T00:08:46.091Z,75.72
2023-01-19T00:09:47.965Z,76.40
2023-01-19T00:10:53.083Z,75.84
2023-01-19T00:11:55.001Z,75.67
2023-01-19T00:12:56.823Z,76.34
2023-01-19T00:13:59.185Z,76.73
2023-01-19T00:15:00.968Z,76.81
2023-01-19T00:16:02.960Z,76.21
2023-01-19T00:17:04.759Z,76.44
2023-01-19T00:18:07.335Z,77.04
2023-01-19T00:19:09.755Z,76.77
2023-01-19T00:20:11.857Z,76.92
2023-01-19T00:21:16.854Z,76.44
2023-01-19T00:22:18.711Z,76.55
2023-01-19T00:23:21.400Z,77.08
2023-01-19T00:24:23.217Z,76.85
2023-01-19T00:25:25.159Z,76.81
2023-01-19T00:26:27.092Z,76.76
2023-01-19T00:27:30.902Z,77.30
2023-01-19T00:28:32.699Z,77.40
2023-01-19T00:29:34.627Z,77.43
2023-01-19T00:30:36.597Z,77.09
2023-01-19T00:31:38.516Z,77.55
2023-01-19T00:32:40.394Z,77.04
2023-01-19T00:33:42.191Z,77.09
2023-01-19T00:34:49.745Z,77.56
2023-01-19T00:35:53.384Z,77.75
2023-01-19T00:36:55.196Z,77.25
2023-01-19T00:37:58.035Z,77.97
2023-01-19T00:38:59.902Z,77.69
2023-01-19T00:40:01.655Z,77.64
2023-01-19T00:41:03.440Z,77.64
2023-01-19T00:42:23.609Z,77.60
2023-01-19T00:43:25.486Z,76.89
2023-01-19T00:44:27.230Z,76.90
2023-01-19T00:45:29.081Z,76.97
2023-01-19T00:46:30.969Z,77.13
2023-01-19T00:47:33.606Z,76.75
2023-01-19T00:48:35.579Z,77.34
2023-01-19T00:49:37.464Z,76.62
2023-01-19T00:50:39.226Z,77.12
2023-01-19T00:51:41.087Z,77.16
2023-01-19T00:52:43.517Z,77.14
2023-01-19T00:53:45.385Z,77.55
2023-01-19T00:54:47.302Z,77.29
2023-01-19T00:55:49.107Z,76.88
2023-01-19T00:56:51.125Z,76.39
2023-01-19T00:57:52.909Z,76.61
2023-01-19T00:58:54.949Z,77.06
2023-01-19T00:59:56.984Z,76.45
2023-01-19T01:01:03.899Z,76.72
2023-01-19T01:02:06.226Z,76.31
2023-01-19T01:03:08.292Z,76.37
2023-01-19T01:04:12.524Z,75.93
2023-01-19T01:05:14.544Z,76.25
2023-01-19T01:06:16.289Z,75.85
2023-01-19T01:07:18.129Z,75.57
2023-01-19T01:08:19.912Z,75.15
2023-01-19T01:09:21.756Z,75.70
2023-01-19T01:10:25.479Z,75.46
2023-01-19T01:11:27.273Z,75.23
2023-01-19T01:12:29.073Z,75.16
2023-01-19T01:13:31.116Z,75.11
2023-01-19T01:14:33.267Z,75.16
2023-01-19T01:15:35.107Z,75.91
2023-01-19T01:16:36.971Z,75.19
2023-01-19T01:17:46.855Z,74.57
2023-01-19T01:18:48.623Z,74.40
2023-01-19T01:19:50.752Z,73.90
2023-01-19T01:20:54.568Z,73.51
2023-01-19T01:21:58.004Z,72.87
2023-01-19T01:23:00.333Z,73.02
2023-01-19T01:24:02.422Z,73.43
2023-01-19T01:25:04.302Z,72.75
2023-01-19T01:26:06.058Z,72.81
2023-01-19T01:27:08.515Z,73.43
2023-01-19T01:28:10.389Z,73.44
2023-01-19T01:29:12.826Z,72.71
2023-01-19T01:30:15.257Z,73.02
2023-01-19T01:31:17.098Z,73.14
2023-01-19T01:32:18.920Z,73.20
2023-01-19T01:33:41.143Z,73.23
2023-01-19T01:34:42.805Z,73.39
2023-01-19T01:35:44.607Z,72.37
2023-01-19T01:36:46.364Z,72.83
2023-01-19T01:37:48.075Z,72.88
2023-01-19T01:38:49.964Z,73.34
2023-01-19T01:39:51.816Z,73.75
2023-01-19T01:40:53.669Z,73.40
2023-01-19T01:41:57.454Z,73.69
2023-01-19T01:42:59.805Z,73.02
2023-01-19T01:44:08.683Z,73.11
2023-01-19T01:45:28.945Z,73.13
2023-01-19T01:46:32.207Z,73.56
2023-01-19T01:47:38.523Z,73.74
2023-01-19T01:48:41.352Z,73.54
2023-01-19T01:49:43.593Z,74.00
2023-01-19T01:51:08.177Z,73.45
2023-01-19T01:52:10.457Z,73.29
2023-01-19T01:53:14.629Z,73.98
2023-01-19T01:54:17.378Z,73.88
2023-01-19T01:55:21.233Z,73.67
2023-01-19T01:56:26.347Z,73.17
2023-01-19T01:57:28.284Z,73.62
2023-01-19T01:58:30.931Z,73.40
2023-01-19T01:59:40.486Z,73.58
2023-01-19T02:01:01.150Z,73.61
2023-01-19T02:02:23.081Z,74.25
2023-01-19T02:03:26.003Z,73.78
2023-01-19T02:04:28.473Z,73.89
2023-01-19T02:05:33.778Z,73.61
2023-01-19T02:06:54.624Z,73.13
2023-01-19T02:08:33.790Z,73.27
2023-01-19T02:09:55.403Z,72.94
2023-01-19T02:11:17.009Z,72.90
2023-01-19T02:12:37.176Z,73.38
2023-01-19T02:13:40.707Z,72.26
2023-01-19T02:14:42.439Z,71.92
2023-01-19T02:15:44.341Z,71.69
2023-01-19T02:16:46.749Z,72.04
2023-01-19T02:17:48.825Z,71.85
2023-01-19T02:18:50.803Z,72.25
2023-01-19T02:19:52.628Z,72.83
2023-01-19T02:20:54.381Z,72.02
2023-01-19T02:22:08.308Z,72.02
2023-01-19T02:23:15.971Z,72.65
2023-01-19T02:24:18.062Z,71.92
2023-01-19T02:25:20.692Z,72.37
2023-01-19T02:26:24.875Z,71.54
2023-01-19T02:27:26.676Z,71.85
2023-01-19T02:28:28.908Z,71.36
2023-01-19T02:29:30.834Z,72.09
2023-01-19T02:30:33.497Z,72.39
2023-01-19T02:31:37.511Z,72.34
2023-01-19T02:32:39.467Z,72.69
2023-01-19T02:33:42.051Z,71.82
2023-01-19T02:34:43.851Z,72.49
2023-01-19T02:35:46.273Z,71.87
2023-01-19T02:36:50.722Z,72.67
2023-01-19T02:37:53.415Z,72.81
2023-01-19T02:39:00.518Z,72.46
2023-01-19T02:40:03.148Z,72.16
2023-01-19T02:41:06.608Z,72.87
2023-01-19T02:42:26.694Z,71.36
2023-01-19T02:43:30.316Z,71.96
2023-01-19T02:44:33.699Z,72.74
2023-01-19T02:45:37.819Z,73.15
2023-01-19T02:46:41.304Z,73.50
2023-01-19T02:47:47.342Z,73.49
2023-01-19T02:48:49.263Z,74.03
2023-01-19T02:49:57.252Z,73.85
2023-01-19T02:51:04.417Z,73.17
2023-01-19T02:52:06.232Z,73.19
2023-01-19T02:53:31.235Z,73.14
2023-01-19T02:54:35.720Z,72.79
2023-01-19T02:55:38.481Z,73.12
2023-01-19T02:56:46.921Z,72.69
2023-01-19T02:57:51.434Z,73.00
2023-01-19T02:59:13.445Z,73.66
2023-01-19T03:00:15.288Z,73.65
2023-01-19T03:01:24.226Z,73.60
2023-01-19T03:02:35.660Z,74.17
2023-01-19T03:03:50.036Z,74.49
2023-01-19T03:05:05.019Z,74.43
2023-01-19T03:06:10.384Z,74.87
2023-01-19T03:07:15.113Z,74.67
2023-01-19T03:08:38.391Z,75.33
2023-01-19T03:09:41.831Z,75.38
2023-01-19T03:10:53.591Z,74.99
2023-01-19T03:12:03.946Z,75.74
2023-01-19T03:13:11.364Z,75.75
2023-01-19T03:14:15.239Z,76.41
2023-01-19T03:15:23.737Z,76.85
2023-01-19T03:16:32.637Z,76.10
2023-01-19T03:17:35.336Z,76.55
2023-01-19T03:18:38.489Z,76.05
2023-01-19T03:19:41.863Z,76.00
2023-01-19T03:20:44.491Z,75.68
2023-01-19T03:21:48.425Z,76.51
2023-01-19T03:22:54.199Z,76.88
2023-01-19T03:23:58.936Z,77.20
2023-01-19T03:25:01.921Z,76.84
2023-01-19T03:26:05.498Z,76.74
2023-01-19T03:27:16.742Z,77.29
2023-01-19T03:28:20.962Z,76.60
2023-01-19T03:29:22.846Z,76.77
2023-01-19T03:30:27.383Z,76.94
2023-01-19T03:31:30.886Z,77.92
2023-01-19T03:32:36.488Z,78.12
2023-01-19T03:33:40.772Z,78.55
2023-01-19T03:34:43.612Z,78.47
2023-01-19T03:35:49.358Z,78.38
2023-01-19T03:36:54.269Z,78.79
2023-01-19T03:37:58.470Z,78.80
2023-01-19T03:39:02.153Z,79.00
2023-01-19T03:40:04.093Z,78.41
2023-01-19T03:41:08.739Z,79.17
2023-01-19T03:42:14.399Z,79.12
2023-01-19T03:43:17.084Z,79.05
2023-01-19T03:44:18.936Z,78.15
2023-01-19T03:45:22.260Z,78.05
2023-01-19T03:46:25.395Z,78.30
2023-01-19T03:47:27.781Z,79.36
2023-01-19T03:48:29.612Z,78.74
2023-01-19T03:49:32.112Z,79.36
2023-01-19T03:50:33.994Z,78.97
2023-01-19T03:51:37.734Z,78.88
2023-01-19T03:52:39.646Z,79.19
2023-01-19T03:53:42.116Z,78.53
2023-01-19T03:54:44.037Z,78.85
2023-01-19T03:55:47.584Z,79.22
2023-01-19T03:56:49.395Z,79.11
2023-01-19T03:57:51.233Z,78.91
2023-01-19T03:58:53.514Z,78.66
2023-01-19T03:59:57.103Z,78.71
2023-01-19T04:00:58.904Z,79.43
2023-01-19T04:02:00.802Z,79.04
2023-01-19T04:03:06.891Z,79.10
2023-01-19T04:04:08.849Z,78.35
2023-01-19T04:05:10.719Z,78.94
2023-01-19T04:06:12.514Z,77.83
2023-01-19T04:07:14.399Z,78.57
2023-01-19T04:08:16.236Z,78.45
2023-01-19T04:09:19.445Z,79.19
2023-01-19T04:10:22.350Z,79.11
2023-01-19T04:11:24.245Z,78.49
2023-01-19T04:12:26.042Z,78.78
2023-01-19T04:13:31.189Z,79.10
2023-01-19T04:14:33.146Z,79.59
2023-01-19T04:15:34.968Z,79.07
2023-01-19T04:16:36.815Z,78.86
2023-01-19T04:17:39.478Z,78.88
2023-01-19T04:18:41.507Z,78.83
2023-01-19T04:19:43.864Z,79.42
2023-01-19T04:20:45.715Z,79.24
2023-01-19T04:21:51.133Z,79.29
2023-01-19T04:22:52.975Z,78.68
2023-01-19T04:23:54.845Z,79.23
2023-01-19T04:24:56.845Z,79.18
2023-01-19T04:25:59.259Z,78.75
2023-01-19T04:27:01.153Z,78.84
2023-01-19T04:28:02.943Z,79.13
2023-01-19T04:29:04.759Z,79.09
2023-01-19T04:30:07.108Z,78.65
2023-01-19T04:31:09.066Z,79.12
2023-01-19T04:32:10.983Z,79.05
2023-01-19T04:33:12.885Z,79.47
2023-01-19T04:34:14.675Z,78.69
2023-01-19T04:35:17.581Z,78.55
2023-01-19T04:36:19.339Z,79.05
2023-01-19T04:37:21.121Z,78.87
2023-01-19T04:38:24.137Z,78.24
2023-01-19T04:39:26.084Z,78.66
2023-01-19T04:40:27.951Z,78.30
2023-01-19T04:41:31.099Z,78.22
2023-01-19T04:42:33.056Z,78.66
2023-01-19T04:43:34.844Z,78.66
2023-01-19T04:44:36.685Z,78.67
2023-01-19T04:45:38.631Z,78.09
2023-01-19T04:46:40.505Z,78.41
2023-01-19T04:47:45.403Z,78.63
2023-01-19T04:48:47.271Z,79.46
2023-01-19T04:49:49.089Z,79.80
2023-01-19T04:50:51.475Z,79.88
2023-01-19T04:51:53.969Z,79.28
2023-01-19T04:52:55.743Z,79.51
2023-01-19T04:53:58.011Z,79.86
2023-01-19T04:54:59.798Z,79.73
2023-01-19T04:56:01.703Z,79.77
2023-01-19T04:57:03.610Z,79.58
2023-01-19T04:58:05.591Z,79.61
2023-01-19T04:59:07.469Z,79.73
2023-01-19T05:00:10.278Z,78.63
2023-01-19T05:01:12.184Z,79.45
2023-01-19T05:02:14.078Z,79.86
2023-01-19T05:03:16.009Z,79.14
2023-01-19T05:04:17.872Z,79.92
2023-01-19T05:05:19.903Z,79.94
2023-01-19T05:06:21.783Z,80.16
2023-01-19T05:07:23.631Z,80.12
2023-01-19T05:08:25.501Z,80.20
2023-01-19T05:09:27.733Z,80.33
2023-01-19T05:10:29.536Z,79.88
2023-01-19T05:11:31.320Z,80.10
2023-01-19T05:12:33.431Z,80.17
2023-01-19T05:13:35.295Z,79.71
2023-01-19T05:14:37.143Z,79.11
2023-01-19T05:15:38.904Z,78.67
2023-01-19T05:16:40.726Z,79.38
2023-01-19T05:17:43.198Z,78.34
2023-01-19T05:18:45.054Z,78.76
2023-01-19T05:19:48.035Z,78.81
2023-01-19T05:20:49.940Z,78.49
2023-01-19T05:21:52.056Z,78.28
2023-01-19T05:22:53.990Z,77.76
2023-01-19T05:23:55.760Z,78.54
2023-01-19T05:24:57.625Z,78.74
2023-01-19T05:26:01.367Z,77.91
2023-01-19T05:27:03.316Z,78.70
2023-01-19T05:28:05.200Z,78.33
2023-01-19T05:29:07.325Z,79.05
2023-01-19T05:30:09.531Z,78.63
2023-01-19T05:31:11.485Z,79.62
2023-01-19T05:32:13.947Z,79.66
2023-01-19T05:33:15.885Z,79.11
2023-01-19T05:34:17.778Z,79.71
2023-01-19T05:35:27.789Z,79.24
2023-01-19T05:36:33.517Z,79.47
2023-01-19T05:37:35.400Z,79.95
2023-01-19T05:38:37.407Z,80.53
2023-01-19T05:39:39.231Z,80.64
2023-01-19T05:40:41.029Z,80.10
2023-01-19T05:41:43.830Z,81.11
2023-01-19T05:42:45.682Z,80.42
2023-01-19T05:43:47.560Z,80.29
2023-01-19T05:44:49.669Z,80.55
2023-01-19T05:45:51.831Z,81.33
2023-01-19T05:46:53.627Z,81.37
2023-01-19T05:47:55.379Z,81.24
2023-01-19T05:48:57.300Z,80.85
2023-01-19T05:49:59.082Z,80.71
2023-01-19T05:51:01.695Z,80.78
2023-01-19T05:52:03.567Z,80.94
2023-01-19T05:53:05.354Z,80.61
2023-01-19T05:54:08.273Z,81.01
2023-01-19T05:55:10.243Z,80.90
2023-01-19T05:56:12.081Z,81.46
2023-01-19T05:57:14.894Z,81.20
2023-01-19T05:58:17.183Z,82.30
2023-01-19T05:59:24.468Z,81.48
2023-01-19T06:00:27.978Z,81.73
2023-01-19T06:01:29.911Z,82.15
2023-01-19T06:02:31.763Z,82.62
2023-01-19T06:03:34.091Z,82.64
2023-01-19T06:04:35.958Z,82.91
2023-01-19T06:05:39.887Z,83.08
2023-01-19T06:06:41.732Z,82.65
2023-01-19T06:07:43.551Z,83.40
2023-01-19T06:08:46.145Z,83.05
2023-01-19T06:09:47.970Z,83.20
2023-01-19T06:10:49.840Z,83.63
2023-01-19T06:11:54.385Z,84.25
2023-01-19T06:12:56.104Z,83.44
2023-01-19T06:13:57.860Z,83.95
2023-01-19T06:14:59.665Z,83.87
2023-01-19T06:16:02.025Z,83.68
2023-01-19T06:17:06.261Z,84.04
2023-01-19T06:18:08.066Z,84.39
2023-01-19T06:19:10.029Z,83.66
2023-01-19T06:20:14.186Z,83.84
2023-01-19T06:21:16.162Z,84.19
2023-01-19T06:22:17.919Z,85.01
2023-01-19T06:23:21.341Z,83.99
2023-01-19T06:24:23.428Z,84.39
2023-01-19T06:25:26.468Z,84.71
2023-01-19T06:26:28.413Z,84.35
2023-01-19T06:27:30.356Z,84.89
2023-01-19T06:28:32.272Z,85.41
2023-01-19T06:29:34.187Z,84.98
2023-01-19T06:30:36.032Z,85.50
2023-01-19T06:31:38.241Z,84.55
2023-01-19T06:32:40.110Z,85.46
2023-01-19T06:33:41.936Z,85.22
2023-01-19T06:34:44.094Z,84.42
2023-01-19T06:35:46.985Z,84.95
2023-01-19T06:36:49.078Z,85.33
2023-01-19T06:37:51.386Z,85.32
2023-01-19T06:38:53.188Z,84.52
2023-01-19T06:39:54.999Z,84.45
2023-01-19T06:40:58.960Z,85.02
2023-01-19T06:42:00.904Z,85.41
2023-01-19T06:43:03.052Z,85.20
2023-01-19T06:44:05.763Z,85.52
2023-01-19T06:45:09.453Z,84.52
2023-01-19T06:46:11.432Z,85.29
2023-01-19T06:47:14.544Z,84.51
2023-01-19T06:48:18.001Z,85.62
2023-01-19T06:49:19.894Z,85.53
2023-01-19T06:50:21.810Z,84.53
2023-01-19T06:51:24.084Z,84.51
2023-01-19T06:52:25.994Z,85.24
2023-01-19T06:53:28.581Z,85.56
2023-01-19T06:54:30.498Z,85.41
2023-01-19T06:55:32.344Z,84.73
2023-01-19T06:56:34.295Z,84.92
2023-01-19T06:57:38.792Z,85.48
2023-01-19T06:58:42.363Z,84.78
2023-01-19T06:59:44.204Z,84.78
2023-01-19T07:00:46.103Z,84.75
2023-01-19T07:01:48.043Z,85.66
2023-01-19T07:02:49.928Z,85.08
2023-01-19T07:03:51.843Z,85.13
2023-01-19T07:04:53.706Z,85.54
2023-01-19T07:05:57.067Z,84.78
2023-01-19T07:06:58.858Z,84.65
2023-01-19T07:08:00.732Z,84.65
2023-01-19T07:09:07.212Z,84.81
2023-01-19T07:10:10.119Z,84.94
2023-01-19T07:11:25.673Z,85.61
2023-01-19T07:12:34.233Z,84.66
2023-01-19T07:13:37.457Z,85.16
2023-01-19T07:14:39.415Z,85.18
2023-01-19T07:15:41.421Z,85.05
2023-01-19T07:16:43.322Z,85.73
2023-01-19T07:17:45.418Z,85.56
2023-01-19T07:18:48.567Z,85.12
2023-01-19T07:19:50.437Z,85.15
2023-01-19T07:20:52.383Z,84.77
2023-01-19T07:21:54.178Z,85.37
2023-01-19T07:22:59.182Z,84.76
2023-01-19T07:24:01.275Z,84.62
2023-01-19T07:25:03.099Z,85.23
2023-01-19T07:26:05.075Z,84.40
2023-01-19T07:27:06.975Z,84.46
2023-01-19T07:28:09.661Z,84.65
2023-01-19T07:29:11.410Z,84.10
2023-01-19T07:30:14.024Z,84.91
2023-01-19T07:31:16.849Z,84.18
2023-01-19T07:32:18.771Z,85.14
2023-01-19T07:33:22.406Z,84.27
2023-01-19T07:34:24.178Z,84.39
2023-01-19T07:35:26.086Z,84.45
2023-01-19T07:36:27.994Z,84.45
2023-01-19T07:37:29.811Z,84.46
2023-01-19T07:38:31.882Z,84.31
2023-01-19T07:39:33.695Z,84.88
2023-01-19T07:40:35.512Z,84.68
2023-01-19T07:41:37.419Z,84.78
2023-01-19T07:42:39.213Z,85.05
2023-01-19T07:43:41.096Z,84.36
2023-01-19T07:44:43.016Z,84.67
2023-01-19T07:45:45.557Z,84.12
2023-01-19T07:46:47.433Z,84.65
2023-01-19T07:47:50.088Z,84.22
2023-01-19T07:48:52.191Z,84.20
2023-01-19T07:49:54.001Z,85.00
2023-01-19T07:51:18.348Z,84.80
2023-01-19T07:52:20.178Z,84.13
2023-01-19T07:53:22.724Z,84.80
2023-01-19T07:54:24.617Z,84.80
2023-01-19T07:55:26.496Z,84.90
2023-01-19T07:56:32.738Z,84.76
2023-01-19T07:57:35.985Z,84.21
2023-01-19T07:58:37.907Z,84.22
2023-01-19T07:59:39.766Z,84.42
2023-01-19T08:00:41.737Z,84.66
2023-01-19T08:01:43.585Z,85.05
2023-01-19T08:02:45.556Z,85.06
2023-01-19T08:03:51.086Z,85.24
2023-01-19T08:04:52.881Z,85.40
2023-01-19T08:05:55.006Z,85.42
2023-01-19T08:06:56.944Z,84.63
2023-01-19T08:07:59.355Z,84.45
2023-01-19T08:09:01.316Z,84.85
2023-01-19T08:10:03.092Z,84.48
2023-01-19T08:11:05.068Z,85.05
2023-01-19T08:12:06.890Z,84.16
2023-01-19T08:13:08.742Z,84.17
2023-01-19T08:14:10.670Z,83.93
2023-01-19T08:15:12.497Z,84.44
2023-01-19T08:16:14.342Z,84.03
2023-01-19T08:17:16.229Z,85.09
2023-01-19T08:18:19.012Z,84.98
2023-01-19T08:19:20.850Z,84.98
2023-01-19T08:20:23.519Z,84.94
2023-01-19T08:21:25.831Z,84.19
2023-01-19T08:22:27.932Z,85.01
2023-01-19T08:23:30.213Z,85.47
2023-01-19T08:24:33.019Z,85.16
2023-01-19T08:25:39.461Z,84.73
2023-01-19T08:26:41.330Z,84.37
2023-01-19T08:27:43.191Z,84.40
2023-01-19T08:28:45.077Z,84.52
2023-01-19T08:29:47.064Z,84.94
2023-01-19T08:30:54.600Z,84.81
2023-01-19T08:32:01.144Z,85.19
2023-01-19T08:33:08.387Z,84.95
2023-01-19T08:34:10.318Z,84.30
2023-01-19T08:35:12.089Z,84.94
2023-01-19T08:36:13.965Z,84.89
2023-01-19T08:37:15.725Z,84.11
2023-01-19T08:38:17.873Z,84.07
2023-01-19T08:39:19.791Z,84.01
2023-01-19T08:40:21.640Z,84.49
2023-01-19T08:41:23.502Z,84.56
2023-01-19T08:42:25.289Z,84.88
2023-01-19T08:43:27.026Z,83.97
2023-01-19T08:44:28.919Z,84.31
2023-01-19T08:45:31.577Z,84.54
2023-01-19T08:46:33.468Z,84.09
2023-01-19T08:47:35.371Z,84.50
2023-01-19T08:48:39.687Z,83.85
2023-01-19T08:49:41.733Z,84.21
2023-01-19T08:50:45.955Z,84.19
2023-01-19T08:51:49.477Z,83.47
2023-01-19T08:52:51.296Z,83.41
2023-01-19T08:53:53.161Z,83.35
2023-01-19T08:54:55.128Z,83.50
2023-01-19T08:55:57.828Z,83.23
2023-01-19T08:56:59.667Z,83.91
2023-01-19T08:58:02.504Z,83.28
2023-01-19T09:00:27.567Z,83.13
2023-01-19T09:01:29.433Z,84.10
2023-01-19T09:02:31.361Z,84.01
2023-01-19T09:03:33.192Z,83.81
2023-01-19T09:04:35.734Z,84.03
2023-01-19T09:05:39.115Z,83.59
2023-01-19T09:06:40.959Z,84.10
2023-01-19T09:07:44.128Z,83.46
2023-01-19T09:08:46.485Z,83.61
2023-01-19T09:09:48.324Z,83.76
2023-01-19T09:10:51.171Z,83.89
2023-01-19T09:11:54.236Z,83.66
2023-01-19T09:12:56.106Z,83.48
2023-01-19T09:13:57.853Z,83.67
2023-01-19T09:14:59.574Z,83.67
2023-01-19T09:16:03.748Z,83.04
2023-01-19T09:17:07.218Z,82.79
2023-01-19T09:18:10.606Z,83.62
2023-01-19T09:19:14.268Z,83.31
2023-01-19T09:20:16.113Z,82.66
2023-01-19T09:21:19.007Z,82.87
2023-01-19T09:22:20.935Z,82.44
2023-01-19T09:23:22.908Z,82.92
2023-01-19T09:24:24.888Z,82.51
2023-01-19T09:25:27.171Z,82.71
2023-01-19T09:26:29.244Z,82.60
2023-01-19T09:27:31.489Z,82.71
2023-01-19T09:28:33.869Z,82.42
2023-01-19T09:29:36.702Z,82.59
2023-01-19T09:30:39.610Z,82.84
2023-01-19T09:31:41.557Z,82.99
2023-01-19T09:32:43.429Z,82.24
2023-01-19T09:33:45.361Z,82.88
2023-01-19T09:34:47.306Z,82.82
2023-01-19T09:35:49.699Z,82.45
2023-01-19T09:36:54.427Z,82.01
2023-01-19T09:37:56.176Z,82.14
2023-01-19T09:38:58.104Z,82.67
2023-01-19T09:39:59.907Z,82.70
2023-01-19T09:41:01.896Z,82.01
2023-01-19T09:42:07.406Z,82.07
2023-01-19T09:43:15.106Z,82.04
2023-01-19T09:44:20.438Z,83.26
2023-01-19T09:45:31.385Z,83.18
2023-01-19T09:46:33.440Z,83.33
2023-01-19T09:47:35.952Z,83.03
2023-01-19T09:48:58.664Z,82.84
2023-01-19T09:50:03.457Z,82.93
2023-01-19T09:51:08.781Z,83.53
2023-01-19T09:52:15.504Z,83.38
2023-01-19T09:53:21.542Z,82.91
2023-01-19T09:54:29.288Z,83.22
2023-01-19T09:55:31.183Z,82.78
2023-01-19T09:56:33.211Z,83.50
2023-01-19T09:57:35.289Z,83.40
2023-01-19T09:58:37.100Z,83.37
2023-01-19T09:59:39.264Z,83.65
2023-01-19T10:00:43.316Z,82.89
2023-01-19T10:01:54.338Z,83.30
2023-01-19T10:03:21.029Z,83.68
2023-01-19T10:04:28.999Z,83.99
2023-01-19T10:05:39.111Z,83.58
2023-01-19T10:06:41.644Z,83.85
2023-01-19T10:08:03.918Z,82.78
2023-01-19T10:09:11.875Z,83.29
2023-01-19T10:10:20.039Z,83.27
2023-01-19T10:11:51.617Z,82.72
2023-01-19T10:13:00.528Z,83.46
2023-01-19T10:14:04.772Z,82.77
2023-01-19T10:15:20.815Z,83.50
2023-01-19T10:16:32.012Z,82.62
2023-01-19T10:17:34.242Z,83.58
2023-01-19T10:18:46.117Z,83.43
2023-01-19T10:19:50.288Z,83.19
2023-01-19T10:21:01.727Z,83.30
2023-01-19T10:22:20.455Z,82.89
2023-01-19T10:23:28.288Z,82.03
2023-01-19T10:24:38.557Z,82.24
2023-01-19T10:25:40.843Z,82.29
2023-01-19T10:26:47.871Z,82.95
2023-01-19T10:27:49.769Z,82.96
2023-01-19T10:29:02.088Z,82.17
2023-01-19T10:30:04.502Z,82.44
2023-01-19T10:31:07.806Z,81.52
2023-01-19T10:32:20.153Z,82.30
2023-01-19T10:33:22.168Z,82.12
2023-01-19T10:34:24.376Z,82.52
2023-01-19T10:35:26.332Z,82.85
2023-01-19T10:36:40.217Z,82.31
2023-01-19T10:37:42.491Z,82.04
2023-01-19T10:38:44.533Z,82.28
2023-01-19T10:39:47.578Z,82.28
2023-01-19T10:40:58.156Z,82.81
2023-01-19T10:42:02.816Z,81.82
2023-01-19T10:43:24.312Z,81.86
2023-01-19T10:44:28.067Z,81.69
2023-01-19T10:45:31.767Z,82.34
2023-01-19T10:46:33.490Z,82.00
2023-01-19T10:47:36.768Z,82.35
2023-01-19T10:48:40.519Z,82.08
2023-01-19T10:49:43.042Z,82.29
2023-01-19T10:50:44.833Z,82.50
2023-01-19T10:51:47.514Z,81.79
2023-01-19T10:52:51.204Z,82.08
2023-01-19T10:53:54.923Z,81.42
2023-01-19T10:54:57.078Z,81.49
2023-01-19T10:56:12.683Z,81.16
2023-01-19T10:57:21.012Z,81.00
2023-01-19T10:58:27.899Z,81.93
2023-01-19T10:59:31.137Z,81.43
2023-01-19T11:00:42.519Z,81.40
2023-01-19T11:01:44.800Z,81.25
2023-01-19T11:02:50.486Z,80.64
2023-01-19T11:03:53.706Z,80.78
2023-01-19T11:05:00.112Z,81.06
2023-01-19T11:06:15.143Z,81.59
2023-01-19T11:07:33.688Z,80.78
2023-01-19T11:08:35.497Z,81.41
2023-01-19T11:09:37.360Z,81.17
2023-01-19T11:10:39.182Z,80.68
2023-01-19T11:11:42.439Z,81.53
2023-01-19T11:13:04.874Z,80.94
2023-01-19T11:14:18.693Z,81.31
2023-01-19T11:15:25.138Z,81.19
2023-01-19T11:16:29.091Z,80.76
2023-01-19T11:17:31.022Z,80.55
2023-01-19T11:18:40.555Z,80.54
2023-01-19T11:19:42.580Z,80.74
2023-01-19T11:20:54.670Z,81.51
2023-01-19T11:22:21.889Z,80.64
2023-01-19T11:23:26.585Z,80.85
2023-01-19T11:24:30.360Z,80.91
2023-01-19T11:25:33.640Z,81.68
2023-01-19T11:26:41.102Z,81.33
2023-01-19T11:27:49.316Z,81.07
2023-01-19T11:28:54.101Z,81.42
2023-01-19T11:30:10.575Z,81.98
2023-01-19T11:31:15.646Z,82.07
2023-01-19T11:32:22.583Z,82.21
2023-01-19T11:33:32.801Z,82.33
2023-01-19T11:34:37.674Z,82.37
2023-01-19T11:35:40.768Z,82.54
2023-01-19T11:36:55.145Z,82.08
2023-01-19T11:38:07.191Z,82.48
2023-01-19T11:39:25.702Z,82.11
2023-01-19T11:40:27.578Z,82.54
2023-01-19T11:41:31.155Z,82.37
2023-01-19T11:42:34.061Z,81.78
2023-01-19T11:43:48.388Z,82.01
2023-01-19T11:44:59.736Z,81.82
2023-01-19T11:46:02.232Z,82.21
2023-01-19T11:47:06.409Z,81.50
2023-01-19T11:48:15.430Z,81.64
2023-01-19T11:49:37.678Z,81.82
2023-01-19T11:50:41.927Z,82.11
2023-01-19T11:51:56.477Z,81.97
2023-01-19T11:53:01.615Z,81.82
2023-01-19T11:54:07.955Z,82.25
2023-01-19T11:55:18.614Z,81.13
2023-01-19T11:56:23.440Z,81.27
2023-01-19T11:57:26.121Z,81.45
2023-01-19T11:58:27.896Z,81.20
2023-01-19T11:59:29.750Z,81.00
2023-01-19T12:00:36.694Z,81.67
2023-01-19T12:01:42.769Z,81.89
2023-01-19T12:02:47.118Z,81.49
2023-01-19T12:03:55.443Z,82.00
2023-01-19T12:05:00.793Z,81.78
2023-01-19T12:06:08.165Z,82.30
2023-01-19T12:07:12.892Z,82.02
2023-01-19T12:08:37.862Z,81.75
2023-01-19T12:09:43.643Z,81.62
2023-01-19T12:10:47.615Z,82.30
2023-01-19T12:11:53.491Z,82.04
2023-01-19T12:12:56.810Z,82.12
2023-01-19T12:14:00.421Z,81.75
2023-01-19T12:15:08.093Z,81.97
2023-01-19T12:16:09.933Z,81.72
2023-01-19T12:17:17.079Z,81.87
2023-01-19T12:18:21.992Z,82.00
2023-01-19T12:19:28.017Z,81.53
2023-01-19T12:20:40.562Z,82.14
2023-01-19T12:21:43.177Z,82.09
2023-01-19T12:22:51.067Z,81.19
2023-01-19T12:24:01.523Z,81.23
2023-01-19T12:25:06.345Z,81.08
2023-01-19T12:26:30.077Z,81.81
2023-01-19T12:27:34.993Z,81.67
2023-01-19T12:28:41.877Z,80.86
2023-01-19T12:29:44.595Z,81.56
2023-01-19T12:30:46.515Z,81.28
2023-01-19T12:32:06.733Z,81.57
2023-01-19T12:33:26.739Z,80.72
2023-01-19T12:34:31.600Z,81.41
2023-01-19T12:35:52.481Z,82.02
2023-01-19T12:36:54.917Z,81.48
2023-01-19T12:37:57.995Z,81.04
2023-01-19T12:39:08.511Z,81.04
2023-01-19T12:40:23.882Z,81.38
2023-01-19T12:41:31.714Z,80.77
2023-01-19T12:42:34.218Z,80.62
2023-01-19T12:43:36.119Z,80.80
2023-01-19T12:44:37.921Z,80.54
2023-01-19T12:45:40.223Z,81.20
2023-01-19T12:46:41.975Z,80.74
2023-01-19T12:48:02.862Z,80.96
2023-01-19T12:49:12.869Z,80.27
2023-01-19T12:50:17.240Z,80.52
2023-01-19T12:51:25.957Z,80.33
2023-01-19T12:52:36.855Z,80.43
2023-01-19T12:53:38.811Z,80.28
2023-01-19T12:54:43.975Z,80.31
2023-01-19T12:55:47.653Z,80.59
2023-01-19T12:56:49.669Z,80.78
2023-01-19T12:58:08.089Z,80.44
2023-01-19T12:59:22.398Z,80.57
2023-01-19T13:00:24.287Z,79.98
2023-01-19T13:01:27.324Z,79.81
2023-01-19T13:02:46.664Z,80.28
2023-01-19T13:04:09.758Z,79.93
2023-01-19T13:05:20.009Z,79.84
2023-01-19T13:06:41.812Z,80.83
2023-01-19T13:08:01.688Z,80.74
2023-01-19T13:09:03.554Z,80.13
2023-01-19T13:10:24.107Z,80.02
2023-01-19T13:11:28.291Z,79.91
2023-01-19T13:12:32.280Z,80.85
2023-01-19T13:13:36.648Z,79.88
2023-01-19T13:14:38.479Z,80.59
2023-01-19T13:15:40.468Z,80.31
2023-01-19T13:16:42.263Z,79.97
2023-01-19T13:17:50.874Z,79.81
2023-01-19T13:18:54.233Z,80.88
2023-01-19T13:20:00.699Z,80.94
2023-01-19T13:21:05.206Z,81.02
2023-01-19T13:22:25.482Z,80.54
2023-01-19T13:23:47.107Z,80.73
2023-01-19T13:25:06.123Z,80.79
2023-01-19T13:26:14.339Z,80.64
2023-01-19T13:27:16.384Z,81.22
2023-01-19T13:28:19.298Z,80.25
2023-01-19T13:29:34.059Z,81.30
2023-01-19T13:30:36.848Z,80.65
2023-01-19T13:31:39.973Z,80.02
2023-01-19T13:32:42.768Z,80.75
2023-01-19T13:33:53.327Z,80.88
2023-01-19T13:35:02.258Z,80.00
2023-01-19T13:36:04.600Z,79.69
2023-01-19T13:37:09.831Z,79.52
2023-01-19T13:38:13.601Z,79.79
2023-01-19T13:39:28.139Z,79.17
2023-01-19T13:40:37.708Z,79.88
2023-01-19T13:41:40.713Z,79.65
2023-01-19T13:42:44.226Z,79.85
2023-01-19T13:43:46.725Z,79.74
2023-01-19T13:44:52.667Z,79.24
2023-01-19T13:45:55.767Z,79.96
2023-01-19T13:46:59.712Z,79.96
2023-01-19T13:48:05.094Z,80.21
2023-01-19T13:49:17.556Z,80.31
2023-01-19T13:50:20.775Z,79.97
2023-01-19T13:51:22.638Z,79.71
2023-01-19T13:52:27.723Z,79.51
2023-01-19T13:53:30.663Z,78.97